PWSweather.com
Personal Weather Stations
Station Observations
KWAGIGHA17
Gig Harbor, WA 98332

Gig Harbor, WA 98332

Lat: 47.35323, Lon: -122.58817

Elevation: 318

Station Type: Davis VP2 Wireless

http://www.gigharborweather.com

Latest ConditionsUpdated 6:30:02 AM PST Sunday, Feb 14, 2016
Currently Today's Max Today's Min Today's Average
Temperature 46.8°F8.2°C 46.8°F8.2°C 46.3°F7.9°C 46.5°F8.1°C
Dew Point 44.0°F6.7°C 44.0°F6.7°C 43.5°F6.4°C 43.7°F6.5°C
Winds 1.2 mph W1.9 kmh W 4.6 mph SSW7.4 kmh SSW - 1.6 mph 2.6 kmh
Wind Gusts 3.5 mph5.6 kmh 12.7 mph20.4 kmh - -
Humidity 90% 90% 90% 90%
Pressure 30.11 in1019.6 mb 30.14 in1020.7 mb 30.10 in1019.3 mb -
Precipitation - 0.05 in1.3 mm - -
Hour Temp Dew Point Humidity Winds Wind Gusts Pressure Precip Precip Rate Daily Precip Total
06:30 AM 46.8°F8.2°C 44.0°F6.7°C 90% 1.2 mph W1.9 kmh W 3.5 mph5.6 kmh 30.11 in1019.6 mb - 0.00 in0.0 mm 0.05 in1.3 mm
06:20 AM 46.7°F8.2°C 43.9°F6.6°C 90% 2.3 mph S3.7 kmh S 5.8 mph9.3 kmh 30.11 in1019.6 mb - 0.01 in0.3 mm 0.05 in1.3 mm
06:10 AM 46.7°F8.2°C 43.9°F6.6°C 90% 1.2 mph SW1.9 kmh SW 4.6 mph7.4 kmh 30.11 in1019.6 mb - 0.00 in0.0 mm 0.04 in1.0 mm
06:00 AM 46.7°F8.2°C 43.9°F6.6°C 90% 3.5 mph S5.6 kmh S 6.9 mph11.1 kmh 30.10 in1019.3 mb - 0.00 in0.0 mm 0.04 in1.0 mm
05:50 AM 46.7°F8.2°C 43.9°F6.6°C 90% Calm Calm 1.2 mph1.9 kmh 30.10 in1019.3 mb - 0.00 in0.0 mm 0.04 in1.0 mm
05:40 AM 46.6°F8.1°C 43.8°F6.6°C 90% 1.2 mph SW1.9 kmh SW 3.5 mph5.6 kmh 30.11 in1019.6 mb - 0.00 in0.0 mm 0.04 in1.0 mm
05:30 AM 46.6°F8.1°C 43.8°F6.6°C 90% 1.2 mph SSW1.9 kmh SSW 3.5 mph5.6 kmh 30.10 in1019.3 mb - 0.00 in0.0 mm 0.04 in1.0 mm
05:20 AM 46.6°F8.1°C 43.8°F6.6°C 90% 2.3 mph WSW3.7 kmh WSW 3.5 mph5.6 kmh 30.11 in1019.6 mb - 0.00 in0.0 mm 0.04 in1.0 mm
05:10 AM 46.6°F8.1°C 43.8°F6.6°C 90% Calm Calm 2.3 mph3.7 kmh 30.10 in1019.3 mb - 0.00 in0.0 mm 0.04 in1.0 mm
05:00 AM 46.6°F8.1°C 43.8°F6.6°C 90% Calm Calm -- 30.11 in1019.6 mb - 0.00 in0.0 mm 0.04 in1.0 mm
04:50 AM 46.6°F8.1°C 43.8°F6.6°C 90% Calm Calm 4.6 mph7.4 kmh 30.11 in1019.6 mb - 0.00 in0.0 mm 0.04 in1.0 mm
04:40 AM 46.6°F8.1°C 43.8°F6.6°C 90% 1.2 mph WSW1.9 kmh WSW 5.8 mph9.3 kmh 30.11 in1019.6 mb - 0.01 in0.3 mm 0.04 in1.0 mm
04:30 AM 46.6°F8.1°C 43.8°F6.6°C 90% 1.2 mph S1.9 kmh S 2.3 mph3.7 kmh 30.11 in1019.6 mb - 0.00 in0.0 mm 0.03 in0.8 mm
04:20 AM 46.6°F8.1°C 43.8°F6.6°C 90% Calm Calm -- 30.11 in1019.6 mb - 0.00 in0.0 mm 0.03 in0.8 mm
04:10 AM 46.6°F8.1°C 43.8°F6.6°C 90% 1.2 mph SW1.9 kmh SW 3.5 mph5.6 kmh 30.11 in1019.6 mb - 0.00 in0.0 mm 0.03 in0.8 mm
04:00 AM 46.6°F8.1°C 43.8°F6.6°C 90% 1.2 mph SW1.9 kmh SW 2.3 mph3.7 kmh 30.11 in1019.6 mb - 0.00 in0.0 mm 0.03 in0.8 mm
03:50 AM 46.6°F8.1°C 43.8°F6.6°C 90% Calm Calm 1.2 mph1.9 kmh 30.11 in1019.6 mb - 0.00 in0.0 mm 0.03 in0.8 mm
03:40 AM 46.6°F8.1°C 43.8°F6.6°C 90% Calm Calm 1.2 mph1.9 kmh 30.12 in1020.0 mb - 0.00 in0.0 mm 0.03 in0.8 mm
03:30 AM 46.6°F8.1°C 43.8°F6.6°C 90% 2.3 mph SSE3.7 kmh SSE 5.8 mph9.3 kmh 30.12 in1020.0 mb - 0.00 in0.0 mm 0.03 in0.8 mm
03:20 AM 46.6°F8.1°C 43.8°F6.6°C 90% 2.3 mph SE3.7 kmh SE 2.3 mph3.7 kmh 30.12 in1020.0 mb - 0.00 in0.0 mm 0.03 in0.8 mm
03:10 AM 46.5°F8.1°C 43.8°F6.6°C 90% 1.2 mph S1.9 kmh S 3.5 mph5.6 kmh 30.13 in1020.3 mb - 0.00 in0.0 mm 0.03 in0.8 mm
03:00 AM 46.5°F8.1°C 43.7°F6.5°C 90% 1.2 mph SSE1.9 kmh SSE 3.5 mph5.6 kmh 30.13 in1020.3 mb - 0.00 in0.0 mm 0.03 in0.8 mm
02:50 AM 46.5°F8.1°C 43.7°F6.5°C 90% 3.5 mph SSE5.6 kmh SSE 4.6 mph7.4 kmh 30.13 in1020.3 mb - 0.01 in0.3 mm 0.03 in0.8 mm
02:40 AM 46.5°F8.1°C 43.7°F6.5°C 90% 3.5 mph SSE5.6 kmh SSE 9.2 mph14.8 kmh 30.12 in1020.0 mb - 0.00 in0.0 mm 0.02 in0.5 mm
02:30 AM 46.5°F8.1°C 43.7°F6.5°C 90% 1.2 mph SE1.9 kmh SE 2.3 mph3.7 kmh 30.13 in1020.3 mb - 0.00 in0.0 mm 0.02 in0.5 mm
02:20 AM 46.5°F8.1°C 43.7°F6.5°C 90% 2.3 mph SW3.7 kmh SW 3.5 mph5.6 kmh 30.13 in1020.3 mb - 0.00 in0.0 mm 0.02 in0.5 mm
02:10 AM 46.5°F8.1°C 43.7°F6.5°C 90% 2.3 mph SW3.7 kmh SW 12.7 mph20.4 kmh 30.13 in1020.3 mb - 0.00 in0.0 mm 0.02 in0.5 mm
02:00 AM 46.5°F8.1°C 43.7°F6.5°C 90% Calm Calm 4.6 mph7.4 kmh 30.13 in1020.3 mb - 0.00 in0.0 mm 0.02 in0.5 mm
01:50 AM 46.5°F8.1°C 43.7°F6.5°C 90% 1.2 mph S1.9 kmh S 3.5 mph5.6 kmh 30.14 in1020.7 mb - 0.01 in0.3 mm 0.02 in0.5 mm
01:40 AM 46.5°F8.1°C 43.7°F6.5°C 90% Calm Calm 1.2 mph1.9 kmh 30.14 in1020.7 mb - 0.00 in0.0 mm 0.01 in0.3 mm
01:30 AM 46.5°F8.1°C 43.7°F6.5°C 90% 2.3 mph S3.7 kmh S 11.5 mph18.5 kmh 30.13 in1020.3 mb - 0.00 in0.0 mm 0.01 in0.3 mm
01:20 AM 46.4°F8.0°C 43.6°F6.4°C 90% 2.3 mph SSE3.7 kmh SSE 3.5 mph5.6 kmh 30.13 in1020.3 mb - 0.00 in0.0 mm 0.01 in0.3 mm
01:10 AM 46.4°F8.0°C 43.6°F6.4°C 90% 3.5 mph SSE5.6 kmh SSE 4.6 mph7.4 kmh 30.13 in1020.3 mb - 0.00 in0.0 mm 0.01 in0.3 mm
01:00 AM 46.4°F8.0°C 43.6°F6.4°C 90% 1.2 mph SW1.9 kmh SW 1.2 mph1.9 kmh 30.13 in1020.3 mb - 0.00 in0.0 mm 0.01 in0.3 mm
12:50 AM 46.4°F8.0°C 43.6°F6.4°C 90% 4.6 mph S7.4 kmh S 8.1 mph13.0 kmh 30.13 in1020.3 mb - 0.00 in0.0 mm 0.01 in0.3 mm
12:40 AM 46.4°F8.0°C 43.6°F6.4°C 90% 4.6 mph SSW7.4 kmh SSW 11.5 mph18.5 kmh 30.13 in1020.3 mb - 0.00 in0.0 mm 0.01 in0.3 mm
12:30 AM 46.4°F8.0°C 43.6°F6.4°C 90% 1.2 mph SSW1.9 kmh SSW 3.5 mph5.6 kmh 30.13 in1020.3 mb - 0.00 in0.0 mm 0.01 in0.3 mm
12:20 AM 46.4°F8.0°C 43.6°F6.4°C 90% 2.3 mph WSW3.7 kmh WSW 6.9 mph11.1 kmh 30.13 in1020.3 mb - 0.00 in0.0 mm 0.01 in0.3 mm
12:10 AM 46.3°F7.9°C 43.5°F6.4°C 90% 2.3 mph SW3.7 kmh SW 6.9 mph11.1 kmh 30.12 in1020.0 mb - 0.01 in0.3 mm 0.01 in0.3 mm
12:00 AM 46.3°F7.9°C 43.5°F6.4°C 90% 2.3 mph SE3.7 kmh SE 5.8 mph9.3 kmh 30.11 in1019.6 mb - 0.00 in0.0 mm 0.00 in0.0 mm